createdAt,value
2023-02-09T00:01:31.902Z,-6.30
2023-02-09T00:04:02.458Z,-6.40
2023-02-09T00:06:30.212Z,-6.30
2023-02-09T00:08:58.913Z,-6.20
2023-02-09T00:11:50.328Z,-6.20
2023-02-09T00:14:21.924Z,-6.00
2023-02-09T00:16:50.966Z,-6.10
2023-02-09T00:19:20.315Z,-6.00
2023-02-09T00:21:48.771Z,-5.90
2023-02-09T00:24:16.177Z,-5.90
2023-02-09T00:26:43.672Z,-5.90
2023-02-09T00:29:12.049Z,-5.90
2023-02-09T00:31:39.632Z,-5.80
2023-02-09T00:34:07.395Z,-5.70
2023-02-09T00:36:34.877Z,-5.70
2023-02-09T00:39:02.257Z,-5.50
2023-02-09T00:41:47.910Z,-5.50
2023-02-09T00:44:14.951Z,-5.40
2023-02-09T00:46:42.002Z,-5.30
2023-02-09T00:49:08.872Z,-5.10
2023-02-09T00:51:36.097Z,-5.10
2023-02-09T00:54:04.092Z,-4.90
2023-02-09T00:56:31.094Z,-4.90
2023-02-09T00:58:58.008Z,-4.90
2023-02-09T01:01:24.944Z,-5.00
2023-02-09T01:03:51.851Z,-5.00
2023-02-09T01:06:18.738Z,-5.00
2023-02-09T01:08:45.607Z,-5.00
2023-02-09T01:11:16.510Z,-5.10
2023-02-09T01:13:45.324Z,-5.10
2023-02-09T01:16:17.684Z,-5.20
2023-02-09T01:18:45.317Z,-5.20
2023-02-09T01:21:17.936Z,-5.20
2023-02-09T01:23:47.125Z,-5.20
2023-02-09T01:26:17.043Z,-5.20
2023-02-09T01:28:48.885Z,-5.10
2023-02-09T01:31:33.249Z,-5.00
2023-02-09T01:34:03.939Z,-4.90
2023-02-09T01:36:32.913Z,-4.90
2023-02-09T01:39:03.047Z,-4.80
2023-02-09T01:41:32.926Z,-4.70
2023-02-09T01:44:11.685Z,-4.70
2023-02-09T01:46:39.933Z,-4.70
2023-02-09T01:49:19.052Z,-4.80
2023-02-09T01:52:04.318Z,-4.80
2023-02-09T01:54:48.017Z,-4.80
2023-02-09T01:57:27.428Z,-4.90
2023-02-09T02:00:08.301Z,-4.90
2023-02-09T02:02:36.633Z,-4.90
2023-02-09T02:05:07.963Z,-4.90
2023-02-09T02:08:05.821Z,-5.00
2023-02-09T02:10:33.817Z,-5.10
2023-02-09T02:13:01.915Z,-5.10
2023-02-09T02:16:24.514Z,-5.10
2023-02-09T02:19:46.733Z,-5.10
2023-02-09T02:23:05.127Z,-5.00
2023-02-09T02:26:07.587Z,-5.10
2023-02-09T02:29:32.335Z,-5.20
2023-02-09T02:32:50.854Z,-5.20
2023-02-09T02:35:39.704Z,-5.20
2023-02-09T02:38:38.921Z,-5.20
2023-02-09T02:41:10.494Z,-5.20
2023-02-09T02:44:08.429Z,-5.20
2023-02-09T02:46:54.526Z,-5.30
2023-02-09T02:49:45.672Z,-5.40
2023-02-09T02:52:13.110Z,-5.40
2023-02-09T02:54:51.620Z,-5.40
2023-02-09T02:57:25.252Z,-5.50
2023-02-09T03:00:11.082Z,-5.60
2023-02-09T03:02:55.117Z,-5.40
2023-02-09T03:05:26.116Z,-5.40
2023-02-09T03:07:53.131Z,-5.50
2023-02-09T03:10:34.752Z,-5.60
2023-02-09T03:14:01.787Z,-5.70
2023-02-09T03:16:54.953Z,-5.70
2023-02-09T03:20:05.432Z,-5.80
2023-02-09T03:22:50.899Z,-5.80
2023-02-09T03:25:29.883Z,-5.80
2023-02-09T03:28:18.216Z,-5.70
2023-02-09T03:30:49.919Z,-5.70
2023-02-09T03:33:26.248Z,-5.60
2023-02-09T03:36:01.032Z,-5.50
2023-02-09T03:38:28.421Z,-5.50
2023-02-09T03:40:55.667Z,-5.60
2023-02-09T03:43:42.542Z,-5.40
2023-02-09T03:46:09.844Z,-5.50
2023-02-09T03:48:37.000Z,-5.60
2023-02-09T03:51:06.588Z,-5.60
2023-02-09T03:53:37.499Z,-5.60
2023-02-09T03:56:09.165Z,-5.70
2023-02-09T03:58:37.049Z,-5.80
2023-02-09T04:01:08.059Z,-5.90
2023-02-09T04:03:37.138Z,-5.90
2023-02-09T04:06:04.796Z,-6.00
2023-02-09T04:08:33.555Z,-6.00
2023-02-09T04:11:00.568Z,-5.90
2023-02-09T04:13:27.992Z,-5.90
2023-02-09T04:15:55.227Z,-6.00
2023-02-09T04:18:22.201Z,-5.90
2023-02-09T04:20:49.172Z,-5.90
2023-02-09T04:23:16.389Z,-5.90
2023-02-09T04:25:43.680Z,-5.90
2023-02-09T04:28:10.774Z,-5.90
2023-02-09T04:30:37.767Z,-5.80
2023-02-09T04:33:04.701Z,-5.90
2023-02-09T04:35:31.614Z,-6.00
2023-02-09T04:37:58.523Z,-6.00
2023-02-09T04:40:25.420Z,-6.00
2023-02-09T04:42:52.280Z,-6.00
2023-02-09T04:45:19.246Z,-6.10
2023-02-09T04:47:46.126Z,-6.10
2023-02-09T04:50:13.098Z,-6.20
2023-02-09T04:52:39.954Z,-6.30
2023-02-09T04:55:07.097Z,-6.40
2023-02-09T04:57:52.577Z,-6.50
2023-02-09T05:00:19.836Z,-6.50
2023-02-09T05:02:46.702Z,-6.50
2023-02-09T05:05:13.560Z,-6.70
2023-02-09T05:07:40.409Z,-6.80
2023-02-09T05:10:07.941Z,-6.90
2023-02-09T05:12:34.814Z,-7.00
2023-02-09T05:15:01.793Z,-7.10
2023-02-09T05:17:30.631Z,-7.10
2023-02-09T05:19:57.526Z,-7.20
2023-02-09T05:22:24.411Z,-7.20
2023-02-09T05:24:51.255Z,-7.20
2023-02-09T05:27:18.528Z,-7.30
2023-02-09T05:29:45.423Z,-7.30
2023-02-09T05:32:12.333Z,-7.30
2023-02-09T05:34:39.200Z,-7.30
2023-02-09T05:37:06.191Z,-7.30
2023-02-09T05:39:33.091Z,-7.40
2023-02-09T05:42:15.508Z,-7.40
2023-02-09T05:44:49.748Z,-7.40
2023-02-09T05:47:21.898Z,-7.40
2023-02-09T05:49:49.008Z,-7.40
2023-02-09T05:52:16.594Z,-7.30
2023-02-09T05:54:46.382Z,-7.30
2023-02-09T05:57:13.699Z,-7.20
2023-02-09T05:59:40.581Z,-7.20
2023-02-09T06:02:07.898Z,-7.20
2023-02-09T06:04:35.405Z,-7.20
2023-02-09T06:07:03.034Z,-7.20
2023-02-09T06:09:29.940Z,-7.20
2023-02-09T06:11:56.810Z,-7.20
2023-02-09T06:14:23.931Z,-7.20
2023-02-09T06:16:50.938Z,-7.30
2023-02-09T06:19:21.121Z,-7.40
2023-02-09T06:21:48.293Z,-7.50
2023-02-09T06:24:17.007Z,-7.50
2023-02-09T06:26:44.068Z,-7.50
2023-02-09T06:29:11.053Z,-7.50
2023-02-09T06:31:38.537Z,-7.50
2023-02-09T06:34:05.740Z,-7.60
2023-02-09T06:36:33.198Z,-7.50
2023-02-09T06:39:01.249Z,-7.50
2023-02-09T06:41:28.322Z,-7.40
2023-02-09T06:43:55.193Z,-7.40
2023-02-09T06:46:22.200Z,-7.40
2023-02-09T06:48:49.553Z,-7.50
2023-02-09T06:51:17.502Z,-7.50
2023-02-09T06:53:44.941Z,-7.50
2023-02-09T06:56:13.411Z,-7.50
2023-02-09T06:58:42.015Z,-7.40
2023-02-09T07:01:15.479Z,-7.30
2023-02-09T07:03:43.763Z,-7.30
2023-02-09T07:06:19.150Z,-7.10
2023-02-09T07:08:46.709Z,-6.80
2023-02-09T07:11:17.401Z,-6.40
2023-02-09T07:13:45.739Z,-5.90
2023-02-09T07:16:13.297Z,-5.60
2023-02-09T07:18:40.938Z,-5.30
2023-02-09T07:21:18.232Z,-5.00
2023-02-09T07:23:47.592Z,-4.70
2023-02-09T07:26:17.993Z,-4.30
2023-02-09T07:28:45.998Z,-3.90
2023-02-09T07:31:16.494Z,-3.60
2023-02-09T07:33:43.837Z,-3.20
2023-02-09T07:36:15.364Z,-2.90
2023-02-09T07:38:42.939Z,-2.70
2023-02-09T07:41:20.899Z,-2.50
2023-02-09T07:43:47.935Z,-2.30
2023-02-09T07:46:19.264Z,-2.10
2023-02-09T07:48:46.708Z,-2.00
2023-02-09T07:51:25.146Z,-1.80
2023-02-09T07:53:53.797Z,-1.60
2023-02-09T07:56:22.039Z,-1.40
2023-02-09T07:58:50.093Z,-1.40
2023-02-09T08:01:18.637Z,-1.20
2023-02-09T08:03:50.015Z,-0.90
2023-02-09T08:06:42.793Z,-0.60
2023-02-09T08:09:16.512Z,-0.50
2023-02-09T08:12:01.646Z,-0.40
2023-02-09T08:14:41.573Z,-0.50
2023-02-09T08:17:24.250Z,-0.20
2023-02-09T08:20:16.087Z,0.30
2023-02-09T08:22:51.116Z,0.30
2023-02-09T08:25:22.779Z,0.30
2023-02-09T08:27:51.577Z,0.70
2023-02-09T08:30:19.682Z,0.90
2023-02-09T08:32:46.582Z,1.20
2023-02-09T08:35:14.140Z,1.50
2023-02-09T08:37:41.176Z,1.50
2023-02-09T08:40:09.018Z,1.70
2023-02-09T08:42:35.988Z,1.90
2023-02-09T08:45:02.883Z,2.10
2023-02-09T08:47:29.769Z,2.30
2023-02-09T08:49:56.669Z,2.30
2023-02-09T08:52:23.526Z,2.20
2023-02-09T08:54:50.507Z,2.20
2023-02-09T08:57:17.402Z,2.20
2023-02-09T08:59:44.311Z,2.10
2023-02-09T09:03:33.434Z,2.20
2023-02-09T09:06:10.900Z,2.50
2023-02-09T09:08:40.142Z,2.70
2023-02-09T09:11:12.644Z,3.00
2023-02-09T09:13:41.882Z,3.30
2023-02-09T09:16:23.029Z,3.60
2023-02-09T09:18:50.295Z,3.60
2023-02-09T09:21:19.377Z,3.90
2023-02-09T09:23:47.562Z,4.10
2023-02-09T09:26:16.754Z,4.40
2023-02-09T09:28:44.990Z,4.80
2023-02-09T09:31:16.965Z,4.40
2023-02-09T09:33:45.724Z,4.10
2023-02-09T09:36:14.515Z,4.40
2023-02-09T09:38:42.265Z,4.80
2023-02-09T09:41:34.384Z,4.70
2023-02-09T09:44:03.654Z,5.10
2023-02-09T09:46:40.898Z,5.20
2023-02-09T09:49:28.529Z,5.50
2023-02-09T09:52:28.250Z,6.00
2023-02-09T09:54:55.397Z,6.00
2023-02-09T09:57:29.928Z,6.40
2023-02-09T09:59:58.098Z,6.40
2023-02-09T10:02:34.303Z,6.50
2023-02-09T10:05:25.442Z,6.80
2023-02-09T10:08:03.793Z,7.00
2023-02-09T10:11:06.096Z,6.90
2023-02-09T10:13:57.164Z,6.90
2023-02-09T10:16:37.952Z,7.20
2023-02-09T10:19:26.026Z,7.30
2023-02-09T10:21:54.283Z,7.20
2023-02-09T10:24:34.196Z,7.60
2023-02-09T10:27:31.018Z,7.20
2023-02-09T10:30:20.484Z,7.30
2023-02-09T10:32:48.204Z,8.00
2023-02-09T10:35:47.692Z,8.10
2023-02-09T10:38:23.820Z,8.10
2023-02-09T10:40:51.649Z,8.40
2023-02-09T10:43:34.539Z,9.30
2023-02-09T10:46:16.895Z,10.20
2023-02-09T10:48:46.791Z,10.50
2023-02-09T10:51:31.264Z,10.20
2023-02-09T10:54:20.642Z,11.10
2023-02-09T10:56:49.810Z,11.80
2023-02-09T10:59:25.679Z,11.90
2023-02-09T11:02:02.438Z,11.60
2023-02-09T11:04:41.269Z,11.50
2023-02-09T11:07:19.534Z,11.40
2023-02-09T11:09:51.756Z,12.40
2023-02-09T11:12:22.498Z,12.30
2023-02-09T11:14:49.632Z,11.40
2023-02-09T11:17:45.480Z,11.60
2023-02-09T11:20:35.400Z,11.80
2023-02-09T11:23:42.913Z,11.60
2023-02-09T11:27:00.882Z,11.60
2023-02-09T11:30:07.618Z,12.20
2023-02-09T11:32:56.670Z,12.00
2023-02-09T11:35:52.309Z,12.40
2023-02-09T11:38:43.973Z,12.50
2023-02-09T11:41:43.985Z,12.60
2023-02-09T11:44:30.323Z,11.80
2023-02-09T11:47:17.854Z,12.20
2023-02-09T11:49:52.206Z,11.90
2023-02-09T11:52:38.134Z,12.20
2023-02-09T11:55:43.186Z,12.40
2023-02-09T11:58:46.992Z,12.40
2023-02-09T12:02:17.429Z,13.90
2023-02-09T12:05:00.686Z,14.90
2023-02-09T12:08:01.260Z,15.90
2023-02-09T12:10:52.666Z,16.70
2023-02-09T12:13:52.769Z,17.70
2023-02-09T12:16:34.884Z,17.80
2023-02-09T12:19:05.718Z,17.10
2023-02-09T12:21:38.327Z,15.90
2023-02-09T12:24:40.569Z,14.40
2023-02-09T12:27:26.610Z,14.20
2023-02-09T12:29:53.514Z,15.30
2023-02-09T12:32:44.656Z,15.10
2023-02-09T12:35:40.026Z,15.60
2023-02-09T12:38:19.474Z,16.00
2023-02-09T12:41:06.265Z,16.60
2023-02-09T12:43:37.412Z,16.40
2023-02-09T12:46:23.774Z,15.70
2023-02-09T12:49:39.720Z,14.90
2023-02-09T12:52:17.162Z,14.80
2023-02-09T12:54:56.672Z,14.30
2023-02-09T12:57:23.799Z,14.50
2023-02-09T12:59:51.037Z,14.70
2023-02-09T13:02:49.603Z,14.20
2023-02-09T13:05:18.949Z,13.70
2023-02-09T13:08:05.864Z,13.10
2023-02-09T13:11:07.020Z,13.00
2023-02-09T13:14:02.987Z,12.20
2023-02-09T13:16:29.748Z,11.80
2023-02-09T13:20:02.308Z,12.20
2023-02-09T13:23:18.630Z,12.40
2023-02-09T13:25:47.056Z,13.00
2023-02-09T13:28:26.351Z,13.30
2023-02-09T13:30:54.095Z,12.90
2023-02-09T13:33:49.137Z,13.70
2023-02-09T13:36:42.444Z,14.00
2023-02-09T13:39:24.571Z,12.50
2023-02-09T13:41:54.554Z,11.60
2023-02-09T13:44:30.005Z,10.90
2023-02-09T13:47:07.057Z,11.40
2023-02-09T13:49:33.916Z,11.90
2023-02-09T13:52:23.392Z,11.30
2023-02-09T13:54:50.802Z,10.60
2023-02-09T13:57:36.877Z,10.50
2023-02-09T14:00:30.156Z,10.40
2023-02-09T14:03:12.317Z,11.10
2023-02-09T14:06:30.060Z,11.70
2023-02-09T14:09:00.900Z,12.70
2023-02-09T14:11:55.083Z,13.00
2023-02-09T14:14:51.242Z,12.40
2023-02-09T14:17:29.926Z,12.00
2023-02-09T14:19:59.570Z,10.90
2023-02-09T14:22:39.842Z,10.30
2023-02-09T14:25:30.043Z,10.20
2023-02-09T14:27:58.468Z,10.40
2023-02-09T14:30:34.014Z,11.00
2023-02-09T14:33:03.708Z,11.00
2023-02-09T14:35:42.098Z,11.10
2023-02-09T14:38:47.495Z,11.60
2023-02-09T14:41:36.275Z,11.90
2023-02-09T14:44:18.149Z,12.00
2023-02-09T14:46:59.185Z,11.90
2023-02-09T14:49:28.053Z,12.00
2023-02-09T14:52:15.061Z,12.10
2023-02-09T14:54:50.106Z,12.10
2023-02-09T14:57:17.074Z,11.60
2023-02-09T14:59:43.931Z,11.60
2023-02-09T15:02:20.810Z,11.30
2023-02-09T15:04:47.985Z,11.30
2023-02-09T15:07:23.941Z,11.10
2023-02-09T15:09:51.506Z,11.00
2023-02-09T15:12:27.668Z,10.70
2023-02-09T15:15:01.637Z,10.50
2023-02-09T15:17:31.332Z,10.20
2023-02-09T15:19:59.116Z,9.70
2023-02-09T15:22:26.199Z,9.50
2023-02-09T15:24:54.657Z,9.10
2023-02-09T15:27:41.362Z,8.60
2023-02-09T15:30:27.239Z,8.30
2023-02-09T15:32:54.318Z,8.20
2023-02-09T15:35:26.788Z,8.20
2023-02-09T15:37:59.520Z,7.90
2023-02-09T15:40:58.819Z,7.60
2023-02-09T15:43:45.955Z,7.30
2023-02-09T15:46:32.816Z,6.80
2023-02-09T15:49:00.414Z,6.40
2023-02-09T15:51:33.963Z,5.80
2023-02-09T15:54:11.960Z,5.20
2023-02-09T15:56:39.477Z,4.70
2023-02-09T15:59:06.444Z,4.30
2023-02-09T16:01:34.692Z,4.00
2023-02-09T16:04:14.030Z,3.70
2023-02-09T16:06:53.208Z,3.30
2023-02-09T16:09:30.852Z,2.90
2023-02-09T16:11:57.866Z,2.50
2023-02-09T16:14:26.762Z,2.10
2023-02-09T16:16:53.838Z,1.70
2023-02-09T16:19:22.008Z,1.30
2023-02-09T16:21:58.230Z,0.90
2023-02-09T16:24:35.915Z,0.40
2023-02-09T16:27:15.533Z,0.00
2023-02-09T16:29:42.803Z,-0.40
2023-02-09T16:32:23.152Z,-0.70
2023-02-09T16:34:51.961Z,-0.90
2023-02-09T16:37:30.882Z,-1.10
2023-02-09T16:39:58.793Z,-1.40
2023-02-09T16:42:26.462Z,-1.70
2023-02-09T16:44:53.487Z,-1.90
2023-02-09T16:47:26.846Z,-2.10
2023-02-09T16:50:04.551Z,-2.10
2023-02-09T16:52:32.095Z,-2.20
2023-02-09T16:55:05.660Z,-2.30
2023-02-09T16:57:32.555Z,-2.50
2023-02-09T16:59:59.563Z,-2.70
2023-02-09T17:02:39.788Z,-3.00
2023-02-09T17:05:28.881Z,-3.30
2023-02-09T17:08:10.382Z,-3.50
2023-02-09T17:10:37.254Z,-3.60
2023-02-09T17:13:04.672Z,-3.70
2023-02-09T17:15:44.634Z,-3.70
2023-02-09T17:18:24.506Z,-3.50
2023-02-09T17:21:02.245Z,-3.40
2023-02-09T17:23:30.619Z,-3.40
2023-02-09T17:25:58.854Z,-3.50
2023-02-09T17:28:27.866Z,-3.50
2023-02-09T17:31:01.515Z,-3.50
2023-02-09T17:33:34.971Z,-3.50
2023-02-09T17:38:50.920Z,-3.80
2023-02-09T17:41:37.221Z,-3.90
2023-02-09T17:44:35.393Z,-4.00
2023-02-09T17:47:19.846Z,-4.10
2023-02-09T17:49:47.050Z,-4.10
2023-02-09T17:52:18.497Z,-4.10
2023-02-09T17:54:46.584Z,-4.30
2023-02-09T17:57:17.977Z,-4.50
2023-02-09T17:59:45.957Z,-4.60
2023-02-09T18:02:19.645Z,-4.70
2023-02-09T18:04:46.658Z,-4.50
2023-02-09T18:07:19.898Z,-4.50
2023-02-09T18:09:46.803Z,-4.60
2023-02-09T18:12:26.277Z,-4.80
2023-02-09T18:14:53.359Z,-4.90
2023-02-09T18:17:20.406Z,-5.00
2023-02-09T18:19:47.372Z,-5.00
2023-02-09T18:22:17.945Z,-4.80
2023-02-09T18:24:45.807Z,-4.90
2023-02-09T18:27:20.892Z,-5.00
2023-02-09T18:29:47.852Z,-5.00
2023-02-09T18:32:17.344Z,-5.10
2023-02-09T18:34:44.486Z,-5.10
2023-02-09T18:37:14.510Z,-5.00
2023-02-09T18:39:45.960Z,-5.00
2023-02-09T18:42:16.130Z,-4.90
2023-02-09T18:44:43.056Z,-5.00
2023-02-09T18:47:11.565Z,-5.00
2023-02-09T18:49:39.130Z,-4.90
2023-02-09T18:52:06.195Z,-5.00
2023-02-09T18:54:33.527Z,-5.00
2023-02-09T18:57:00.691Z,-5.20
2023-02-09T18:59:31.358Z,-5.20
2023-02-09T19:01:59.688Z,-5.30
2023-02-09T19:04:26.954Z,-5.50
2023-02-09T19:06:54.169Z,-5.60
2023-02-09T19:09:21.163Z,-5.70
2023-02-09T19:11:48.164Z,-5.70
2023-02-09T19:14:33.889Z,-5.80
2023-02-09T19:17:00.765Z,-5.80
2023-02-09T19:19:27.686Z,-5.70
2023-02-09T19:21:55.494Z,-5.40
2023-02-09T19:24:22.354Z,-5.10
2023-02-09T19:26:49.890Z,-5.20
2023-02-09T19:29:17.070Z,-5.20
2023-02-09T19:31:44.041Z,-5.30
2023-02-09T19:34:10.922Z,-5.50
2023-02-09T19:36:37.923Z,-5.60
2023-02-09T19:39:04.815Z,-5.50
2023-02-09T19:41:31.749Z,-5.60
2023-02-09T19:43:59.278Z,-5.70
2023-02-09T19:46:26.311Z,-5.60
2023-02-09T19:48:53.733Z,-5.50
2023-02-09T19:51:21.423Z,-5.70
2023-02-09T19:53:48.874Z,-5.80
2023-02-09T19:56:20.527Z,-5.90
2023-02-09T19:58:47.438Z,-6.00
2023-02-09T20:01:14.480Z,-6.00
2023-02-09T20:03:42.335Z,-6.10
2023-02-09T20:06:14.109Z,-6.10
2023-02-09T20:08:41.072Z,-6.00
2023-02-09T20:11:12.826Z,-5.80
2023-02-09T20:13:39.840Z,-5.70
2023-02-09T20:16:21.950Z,-5.70
2023-02-09T20:18:50.202Z,-5.80
2023-02-09T20:21:21.546Z,-6.00
2023-02-09T20:23:48.631Z,-6.10
2023-02-09T20:26:22.661Z,-6.00
2023-02-09T20:28:51.013Z,-5.90
2023-02-09T20:31:29.157Z,-5.90
2023-02-09T20:33:58.145Z,-6.10
2023-02-09T20:36:25.882Z,-6.10
2023-02-09T20:38:52.940Z,-6.20
2023-02-09T20:41:19.857Z,-6.20
2023-02-09T20:44:05.672Z,-6.20
2023-02-09T20:46:44.013Z,-6.20
2023-02-09T20:49:17.056Z,-6.20
2023-02-09T20:51:45.944Z,-6.30
2023-02-09T20:54:13.773Z,-6.30
2023-02-09T20:56:40.860Z,-6.20
2023-02-09T20:59:08.818Z,-6.20
2023-02-09T21:01:39.077Z,-6.40
2023-02-09T21:04:07.286Z,-6.50
2023-02-09T21:06:37.138Z,-6.50
2023-02-09T21:09:09.015Z,-6.60
2023-02-09T21:11:35.978Z,-6.60
2023-02-09T21:14:03.419Z,-6.60
2023-02-09T21:16:31.485Z,-6.60
2023-02-09T21:18:59.418Z,-6.50
2023-02-09T21:21:27.246Z,-6.40
2023-02-09T21:23:54.533Z,-6.50
2023-02-09T21:26:24.266Z,-6.60
2023-02-09T21:28:56.684Z,-6.60
2023-02-09T21:31:28.075Z,-6.50
2023-02-09T21:33:55.164Z,-6.50
2023-02-09T21:36:22.197Z,-6.60
2023-02-09T21:38:49.620Z,-6.80
2023-02-09T21:41:42.785Z,-7.00
2023-02-09T21:44:11.698Z,-7.00
2023-02-09T21:46:39.023Z,-7.00
2023-02-09T21:49:05.966Z,-7.20
2023-02-09T21:51:33.282Z,-7.30
2023-02-09T21:54:00.307Z,-7.40
2023-02-09T21:56:27.420Z,-7.40
2023-02-09T21:58:54.329Z,-7.40
2023-02-09T22:01:21.213Z,-7.40
2023-02-09T22:03:56.840Z,-7.30
2023-02-09T22:06:30.179Z,-7.20
2023-02-09T22:08:57.246Z,-7.10
2023-02-09T22:11:24.132Z,-7.00
2023-02-09T22:13:50.996Z,-7.00
2023-02-09T22:16:22.088Z,-6.90
2023-02-09T22:18:49.621Z,-7.00
2023-02-09T22:21:18.025Z,-7.10
2023-02-09T22:23:44.942Z,-7.10
2023-02-09T22:26:13.785Z,-7.10
2023-02-09T22:28:42.027Z,-6.90
2023-02-09T22:31:14.497Z,-6.80
2023-02-09T22:33:41.753Z,-6.80
2023-02-09T22:36:16.233Z,-6.80
2023-02-09T22:38:44.718Z,-6.90
2023-02-09T22:41:23.994Z,-6.90
2023-02-09T22:44:02.452Z,-7.00
2023-02-09T22:46:36.935Z,-6.90
2023-02-09T22:49:09.367Z,-7.10
2023-02-09T22:51:36.697Z,-7.40
2023-02-09T22:54:06.210Z,-7.50
2023-02-09T22:56:33.374Z,-7.60
2023-02-09T22:59:01.626Z,-7.60
2023-02-09T23:01:30.312Z,-7.60
2023-02-09T23:03:58.016Z,-7.60
2023-02-09T23:06:29.634Z,-7.70
2023-02-09T23:09:02.093Z,-7.70
2023-02-09T23:11:31.635Z,-7.70
2023-02-09T23:14:10.209Z,-7.50
2023-02-09T23:16:40.647Z,-7.50
2023-02-09T23:19:19.976Z,-7.60
2023-02-09T23:21:51.811Z,-7.60
2023-02-09T23:24:22.077Z,-7.70
2023-02-09T23:26:49.223Z,-7.70
2023-02-09T23:29:18.338Z,-7.80
2023-02-09T23:31:47.110Z,-7.90
2023-02-09T23:34:22.995Z,-8.00
2023-02-09T23:36:50.432Z,-8.00
2023-02-09T23:39:22.385Z,-7.90
2023-02-09T23:41:49.627Z,-7.90
2023-02-09T23:44:16.534Z,-8.10
2023-02-09T23:46:44.561Z,-8.10
2023-02-09T23:49:11.778Z,-8.20
2023-02-09T23:51:38.698Z,-8.30
2023-02-09T23:54:07.369Z,-8.20
2023-02-09T23:56:37.145Z,-8.10
2023-02-09T23:59:09.493Z,-8.00
